sensor_id;sensor_type;location;lat;lon;timestamp;P1;durP1;ratioP1;P2;durP2;ratioP2
19679;SDS011;9989;48.962;9.182;2022-08-01T00:00:36;6.10;;;2.80;;
19679;SDS011;9989;48.962;9.182;2022-08-01T00:03:02;6.37;;;2.93;;
19679;SDS011;9989;48.962;9.182;2022-08-01T00:05:27;6.30;;;2.90;;
19679;SDS011;9989;48.962;9.182;2022-08-01T00:07:56;7.90;;;3.10;;
19679;SDS011;9989;48.962;9.182;2022-08-01T00:10:21;6.20;;;2.63;;
19679;SDS011;9989;48.962;9.182;2022-08-01T00:12:47;6.80;;;2.67;;
19679;SDS011;9989;48.962;9.182;2022-08-01T00:15:14;5.23;;;2.73;;
19679;SDS011;9989;48.962;9.182;2022-08-01T00:17:41;6.23;;;2.80;;
19679;SDS011;9989;48.962;9.182;2022-08-01T00:20:08;6.33;;;2.93;;
19679;SDS011;9989;48.962;9.182;2022-08-01T00:22:35;6.13;;;2.70;;
19679;SDS011;9989;48.962;9.182;2022-08-01T00:25:01;6.67;;;2.80;;
19679;SDS011;9989;48.962;9.182;2022-08-01T00:27:28;6.00;;;2.90;;
19679;SDS011;9989;48.962;9.182;2022-08-01T00:29:53;6.47;;;3.03;;
19679;SDS011;9989;48.962;9.182;2022-08-01T00:32:19;6.37;;;2.93;;
19679;SDS011;9989;48.962;9.182;2022-08-01T00:34:44;6.43;;;2.67;;
19679;SDS011;9989;48.962;9.182;2022-08-01T00:37:10;7.10;;;3.23;;
19679;SDS011;9989;48.962;9.182;2022-08-01T00:39:36;6.73;;;3.07;;
19679;SDS011;9989;48.962;9.182;2022-08-01T00:42:05;6.10;;;2.90;;
19679;SDS011;9989;48.962;9.182;2022-08-01T00:44:35;6.57;;;3.60;;
19679;SDS011;9989;48.962;9.182;2022-08-01T00:47:02;7.70;;;2.90;;
19679;SDS011;9989;48.962;9.182;2022-08-01T00:49:29;7.80;;;3.10;;
19679;SDS011;9989;48.962;9.182;2022-08-01T00:51:55;6.87;;;3.20;;
19679;SDS011;9989;48.962;9.182;2022-08-01T00:54:22;7.43;;;3.00;;
19679;SDS011;9989;48.962;9.182;2022-08-01T00:56:49;6.80;;;3.00;;
19679;SDS011;9989;48.962;9.182;2022-08-01T00:59:16;5.93;;;2.80;;
19679;SDS011;9989;48.962;9.182;2022-08-01T01:01:42;6.70;;;2.93;;
19679;SDS011;9989;48.962;9.182;2022-08-01T01:04:08;6.73;;;3.20;;
19679;SDS011;9989;48.962;9.182;2022-08-01T01:06:38;6.60;;;3.27;;
19679;SDS011;9989;48.962;9.182;2022-08-01T01:14:23;6.90;;;3.20;;
19679;SDS011;9989;48.962;9.182;2022-08-01T01:16:58;6.83;;;3.03;;
19679;SDS011;9989;48.962;9.182;2022-08-01T01:19:28;6.20;;;3.00;;
19679;SDS011;9989;48.962;9.182;2022-08-01T01:22:01;6.13;;;3.03;;
19679;SDS011;9989;48.962;9.182;2022-08-01T01:24:38;6.63;;;3.37;;
19679;SDS011;9989;48.962;9.182;2022-08-01T01:30:10;6.77;;;3.73;;
19679;SDS011;9989;48.962;9.182;2022-08-01T01:32:41;7.57;;;3.20;;
19679;SDS011;9989;48.962;9.182;2022-08-01T01:35:11;7.93;;;3.20;;
19679;SDS011;9989;48.962;9.182;2022-08-01T01:37:42;8.07;;;3.70;;
19679;SDS011;9989;48.962;9.182;2022-08-01T01:40:11;6.17;;;3.07;;
19679;SDS011;9989;48.962;9.182;2022-08-01T01:42:38;10.03;;;3.60;;
19679;SDS011;9989;48.962;9.182;2022-08-01T01:45:06;8.63;;;3.50;;
19679;SDS011;9989;48.962;9.182;2022-08-01T01:47:33;7.63;;;3.57;;
19679;SDS011;9989;48.962;9.182;2022-08-01T01:50:00;7.73;;;3.20;;
19679;SDS011;9989;48.962;9.182;2022-08-01T01:52:27;7.60;;;3.33;;
19679;SDS011;9989;48.962;9.182;2022-08-01T01:54:56;6.87;;;3.27;;
19679;SDS011;9989;48.962;9.182;2022-08-01T01:57:23;8.90;;;3.30;;
19679;SDS011;9989;48.962;9.182;2022-08-01T01:59:49;8.90;;;3.23;;
19679;SDS011;9989;48.962;9.182;2022-08-01T02:02:17;7.57;;;3.23;;
19679;SDS011;9989;48.962;9.182;2022-08-01T02:04:45;7.57;;;3.57;;
19679;SDS011;9989;48.962;9.182;2022-08-01T02:07:13;7.93;;;3.40;;
19679;SDS011;9989;48.962;9.182;2022-08-01T02:09:42;6.10;;;2.90;;
19679;SDS011;9989;48.962;9.182;2022-08-01T02:12:10;7.23;;;3.40;;
19679;SDS011;9989;48.962;9.182;2022-08-01T02:14:37;7.50;;;3.30;;
19679;SDS011;9989;48.962;9.182;2022-08-01T02:17:07;9.10;;;3.53;;
19679;SDS011;9989;48.962;9.182;2022-08-01T02:19:36;7.67;;;3.57;;
19679;SDS011;9989;48.962;9.182;2022-08-01T02:22:14;5.80;;;3.10;;
19679;SDS011;9989;48.962;9.182;2022-08-01T02:27:21;6.83;;;3.40;;
19679;SDS011;9989;48.962;9.182;2022-08-01T02:30:01;7.80;;;3.30;;
19679;SDS011;9989;48.962;9.182;2022-08-01T02:32:33;9.43;;;3.50;;
19679;SDS011;9989;48.962;9.182;2022-08-01T02:35:16;7.27;;;3.40;;
19679;SDS011;9989;48.962;9.182;2022-08-01T02:37:46;6.87;;;3.40;;
19679;SDS011;9989;48.962;9.182;2022-08-01T02:40:13;7.23;;;3.13;;
19679;SDS011;9989;48.962;9.182;2022-08-01T02:42:43;8.43;;;4.00;;
19679;SDS011;9989;48.962;9.182;2022-08-01T02:45:12;6.37;;;3.27;;
19679;SDS011;9989;48.962;9.182;2022-08-01T02:47:38;8.50;;;3.50;;
19679;SDS011;9989;48.962;9.182;2022-08-01T02:50:06;8.10;;;3.70;;
19679;SDS011;9989;48.962;9.182;2022-08-01T02:52:34;8.13;;;3.53;;
19679;SDS011;9989;48.962;9.182;2022-08-01T02:55:02;6.67;;;3.50;;
19679;SDS011;9989;48.962;9.182;2022-08-01T02:57:29;6.97;;;3.40;;
19679;SDS011;9989;48.962;9.182;2022-08-01T02:59:55;7.80;;;3.60;;
19679;SDS011;9989;48.962;9.182;2022-08-01T03:02:23;7.53;;;3.73;;
19679;SDS011;9989;48.962;9.182;2022-08-01T03:04:49;6.83;;;3.23;;
19679;SDS011;9989;48.962;9.182;2022-08-01T03:07:17;7.43;;;3.40;;
19679;SDS011;9989;48.962;9.182;2022-08-01T03:09:45;7.47;;;3.53;;
19679;SDS011;9989;48.962;9.182;2022-08-01T03:12:22;7.13;;;3.63;;
19679;SDS011;9989;48.962;9.182;2022-08-01T03:14:51;6.07;;;3.60;;
19679;SDS011;9989;48.962;9.182;2022-08-01T03:17:18;6.37;;;3.30;;
19679;SDS011;9989;48.962;9.182;2022-08-01T03:19:47;6.77;;;3.63;;
19679;SDS011;9989;48.962;9.182;2022-08-01T03:22:14;6.83;;;3.33;;
19679;SDS011;9989;48.962;9.182;2022-08-01T03:24:41;7.30;;;3.57;;
19679;SDS011;9989;48.962;9.182;2022-08-01T03:27:09;6.93;;;3.70;;
19679;SDS011;9989;48.962;9.182;2022-08-01T03:29:36;7.33;;;3.63;;
19679;SDS011;9989;48.962;9.182;2022-08-01T03:32:04;7.43;;;3.77;;
19679;SDS011;9989;48.962;9.182;2022-08-01T03:34:30;7.97;;;3.80;;
19679;SDS011;9989;48.962;9.182;2022-08-01T03:37:03;9.03;;;3.57;;
19679;SDS011;9989;48.962;9.182;2022-08-01T03:39:37;6.97;;;3.50;;
19679;SDS011;9989;48.962;9.182;2022-08-01T03:42:11;8.60;;;3.80;;
19679;SDS011;9989;48.962;9.182;2022-08-01T03:44:40;7.93;;;3.60;;
19679;SDS011;9989;48.962;9.182;2022-08-01T03:47:09;8.07;;;3.43;;
19679;SDS011;9989;48.962;9.182;2022-08-01T03:49:37;8.50;;;3.70;;
19679;SDS011;9989;48.962;9.182;2022-08-01T03:52:07;8.10;;;3.50;;
19679;SDS011;9989;48.962;9.182;2022-08-01T03:54:40;7.80;;;3.70;;
19679;SDS011;9989;48.962;9.182;2022-08-01T03:57:08;7.57;;;4.53;;
19679;SDS011;9989;48.962;9.182;2022-08-01T03:59:35;6.97;;;3.70;;
19679;SDS011;9989;48.962;9.182;2022-08-01T04:02:02;8.40;;;4.00;;
19679;SDS011;9989;48.962;9.182;2022-08-01T04:04:29;7.67;;;4.10;;
19679;SDS011;9989;48.962;9.182;2022-08-01T04:06:55;7.77;;;3.97;;
19679;SDS011;9989;48.962;9.182;2022-08-01T04:09:21;7.03;;;3.73;;
19679;SDS011;9989;48.962;9.182;2022-08-01T04:11:47;7.87;;;3.60;;
19679;SDS011;9989;48.962;9.182;2022-08-01T04:14:13;8.53;;;4.07;;
19679;SDS011;9989;48.962;9.182;2022-08-01T04:16:39;7.17;;;3.47;;
19679;SDS011;9989;48.962;9.182;2022-08-01T04:19:05;7.93;;;4.17;;
19679;SDS011;9989;48.962;9.182;2022-08-01T04:21:34;7.87;;;3.70;;
19679;SDS011;9989;48.962;9.182;2022-08-01T04:24:04;7.87;;;3.97;;
19679;SDS011;9989;48.962;9.182;2022-08-01T04:26:36;8.00;;;3.97;;
19679;SDS011;9989;48.962;9.182;2022-08-01T04:29:02;7.67;;;4.40;;
19679;SDS011;9989;48.962;9.182;2022-08-01T04:31:31;7.03;;;3.47;;
19679;SDS011;9989;48.962;9.182;2022-08-01T04:33:58;7.77;;;4.10;;
19679;SDS011;9989;48.962;9.182;2022-08-01T04:36:26;8.80;;;4.27;;
19679;SDS011;9989;48.962;9.182;2022-08-01T04:38:56;7.07;;;3.77;;
19679;SDS011;9989;48.962;9.182;2022-08-01T04:41:25;7.73;;;3.97;;
19679;SDS011;9989;48.962;9.182;2022-08-01T04:43:51;9.43;;;4.20;;
19679;SDS011;9989;48.962;9.182;2022-08-01T04:46:19;8.97;;;3.83;;
19679;SDS011;9989;48.962;9.182;2022-08-01T04:48:44;7.13;;;3.90;;
19679;SDS011;9989;48.962;9.182;2022-08-01T04:51:11;7.60;;;4.00;;
19679;SDS011;9989;48.962;9.182;2022-08-01T04:53:40;7.77;;;3.40;;
19679;SDS011;9989;48.962;9.182;2022-08-01T04:56:06;6.70;;;3.60;;
19679;SDS011;9989;48.962;9.182;2022-08-01T04:58:31;8.23;;;3.97;;
19679;SDS011;9989;48.962;9.182;2022-08-01T05:00:57;7.37;;;3.87;;
19679;SDS011;9989;48.962;9.182;2022-08-01T05:03:22;7.87;;;3.50;;
19679;SDS011;9989;48.962;9.182;2022-08-01T05:05:48;7.17;;;3.70;;
19679;SDS011;9989;48.962;9.182;2022-08-01T05:08:14;7.83;;;3.90;;
19679;SDS011;9989;48.962;9.182;2022-08-01T05:10:41;8.30;;;3.87;;
19679;SDS011;9989;48.962;9.182;2022-08-01T05:13:07;6.83;;;3.63;;
19679;SDS011;9989;48.962;9.182;2022-08-01T05:15:34;6.93;;;3.60;;
19679;SDS011;9989;48.962;9.182;2022-08-01T05:18:02;8.43;;;3.90;;
19679;SDS011;9989;48.962;9.182;2022-08-01T05:20:28;7.07;;;3.40;;
19679;SDS011;9989;48.962;9.182;2022-08-01T05:22:54;7.97;;;3.57;;
19679;SDS011;9989;48.962;9.182;2022-08-01T05:25:19;6.53;;;3.20;;
19679;SDS011;9989;48.962;9.182;2022-08-01T05:27:45;8.20;;;3.87;;
19679;SDS011;9989;48.962;9.182;2022-08-01T05:30:11;8.30;;;3.47;;
19679;SDS011;9989;48.962;9.182;2022-08-01T05:32:36;8.53;;;3.40;;
19679;SDS011;9989;48.962;9.182;2022-08-01T05:35:03;7.43;;;3.53;;
19679;SDS011;9989;48.962;9.182;2022-08-01T05:37:29;11.17;;;3.90;;
19679;SDS011;9989;48.962;9.182;2022-08-01T05:39:55;7.10;;;3.17;;
19679;SDS011;9989;48.962;9.182;2022-08-01T05:42:20;9.30;;;3.77;;
19679;SDS011;9989;48.962;9.182;2022-08-01T05:44:46;7.87;;;3.30;;
19679;SDS011;9989;48.962;9.182;2022-08-01T05:47:12;9.53;;;4.17;;
19679;SDS011;9989;48.962;9.182;2022-08-01T05:49:38;7.17;;;3.20;;
19679;SDS011;9989;48.962;9.182;2022-08-01T05:52:04;8.70;;;3.07;;
19679;SDS011;9989;48.962;9.182;2022-08-01T05:54:30;8.00;;;3.57;;
19679;SDS011;9989;48.962;9.182;2022-08-01T05:56:56;6.33;;;3.20;;
19679;SDS011;9989;48.962;9.182;2022-08-01T05:59:24;7.87;;;3.67;;
19679;SDS011;9989;48.962;9.182;2022-08-01T06:01:50;9.53;;;3.43;;
19679;SDS011;9989;48.962;9.182;2022-08-01T06:04:16;7.60;;;3.77;;
19679;SDS011;9989;48.962;9.182;2022-08-01T06:06:41;6.77;;;3.50;;
19679;SDS011;9989;48.962;9.182;2022-08-01T06:09:07;7.43;;;3.07;;
19679;SDS011;9989;48.962;9.182;2022-08-01T06:11:33;6.33;;;3.23;;
19679;SDS011;9989;48.962;9.182;2022-08-01T06:13:58;8.33;;;3.60;;
19679;SDS011;9989;48.962;9.182;2022-08-01T06:16:24;14.03;;;3.73;;
19679;SDS011;9989;48.962;9.182;2022-08-01T06:18:49;9.27;;;3.43;;
19679;SDS011;9989;48.962;9.182;2022-08-01T06:21:15;7.80;;;3.40;;
19679;SDS011;9989;48.962;9.182;2022-08-01T06:23:41;7.23;;;3.27;;
19679;SDS011;9989;48.962;9.182;2022-08-01T06:26:08;8.10;;;3.07;;
19679;SDS011;9989;48.962;9.182;2022-08-01T06:28:34;6.37;;;3.00;;
19679;SDS011;9989;48.962;9.182;2022-08-01T06:31:00;7.40;;;3.13;;
19679;SDS011;9989;48.962;9.182;2022-08-01T06:33:26;6.53;;;2.87;;
19679;SDS011;9989;48.962;9.182;2022-08-01T06:35:52;5.97;;;2.70;;
19679;SDS011;9989;48.962;9.182;2022-08-01T06:38:17;6.60;;;2.83;;
19679;SDS011;9989;48.962;9.182;2022-08-01T06:40:43;5.20;;;2.50;;
19679;SDS011;9989;48.962;9.182;2022-08-01T06:43:09;6.53;;;2.67;;
19679;SDS011;9989;48.962;9.182;2022-08-01T06:45:36;6.17;;;2.90;;
19679;SDS011;9989;48.962;9.182;2022-08-01T06:48:03;4.80;;;2.30;;
19679;SDS011;9989;48.962;9.182;2022-08-01T06:50:28;5.03;;;2.50;;
19679;SDS011;9989;48.962;9.182;2022-08-01T06:52:54;8.13;;;2.47;;
19679;SDS011;9989;48.962;9.182;2022-08-01T06:55:20;7.40;;;2.30;;
19679;SDS011;9989;48.962;9.182;2022-08-01T06:57:46;6.20;;;2.57;;
19679;SDS011;9989;48.962;9.182;2022-08-01T07:00:13;4.80;;;2.17;;
19679;SDS011;9989;48.962;9.182;2022-08-01T07:02:39;8.47;;;2.40;;
19679;SDS011;9989;48.962;9.182;2022-08-01T07:05:06;6.93;;;2.30;;
19679;SDS011;9989;48.962;9.182;2022-08-01T07:07:31;5.87;;;2.30;;
19679;SDS011;9989;48.962;9.182;2022-08-01T07:09:57;7.07;;;2.40;;
19679;SDS011;9989;48.962;9.182;2022-08-01T07:12:23;6.00;;;2.80;;
19679;SDS011;9989;48.962;9.182;2022-08-01T07:14:48;5.40;;;2.43;;
19679;SDS011;9989;48.962;9.182;2022-08-01T07:17:14;6.10;;;2.40;;
19679;SDS011;9989;48.962;9.182;2022-08-01T07:19:40;5.47;;;2.50;;
19679;SDS011;9989;48.962;9.182;2022-08-01T07:22:05;8.43;;;2.40;;
19679;SDS011;9989;48.962;9.182;2022-08-01T07:24:31;5.60;;;2.33;;
19679;SDS011;9989;48.962;9.182;2022-08-01T07:26:57;5.67;;;2.50;;
19679;SDS011;9989;48.962;9.182;2022-08-01T07:29:25;4.47;;;2.30;;
19679;SDS011;9989;48.962;9.182;2022-08-01T07:31:52;5.23;;;2.40;;
19679;SDS011;9989;48.962;9.182;2022-08-01T07:34:19;5.57;;;2.60;;
19679;SDS011;9989;48.962;9.182;2022-08-01T07:36:45;8.07;;;2.80;;
19679;SDS011;9989;48.962;9.182;2022-08-01T07:39:10;4.83;;;2.37;;
19679;SDS011;9989;48.962;9.182;2022-08-01T07:41:36;6.33;;;2.57;;
19679;SDS011;9989;48.962;9.182;2022-08-01T07:44:02;5.70;;;2.20;;
19679;SDS011;9989;48.962;9.182;2022-08-01T07:46:27;5.40;;;2.10;;
19679;SDS011;9989;48.962;9.182;2022-08-01T07:48:55;4.33;;;2.20;;
19679;SDS011;9989;48.962;9.182;2022-08-01T07:51:20;4.17;;;2.00;;
19679;SDS011;9989;48.962;9.182;2022-08-01T07:53:46;5.87;;;2.63;;
19679;SDS011;9989;48.962;9.182;2022-08-01T07:56:12;5.33;;;2.00;;
19679;SDS011;9989;48.962;9.182;2022-08-01T07:58:38;4.90;;;2.10;;
19679;SDS011;9989;48.962;9.182;2022-08-01T08:01:04;7.97;;;2.20;;
19679;SDS011;9989;48.962;9.182;2022-08-01T08:03:29;5.27;;;2.40;;
19679;SDS011;9989;48.962;9.182;2022-08-01T08:05:58;4.57;;;2.17;;
19679;SDS011;9989;48.962;9.182;2022-08-01T08:08:24;6.43;;;2.30;;
19679;SDS011;9989;48.962;9.182;2022-08-01T08:10:49;5.97;;;2.77;;
19679;SDS011;9989;48.962;9.182;2022-08-01T08:13:15;6.20;;;2.77;;
19679;SDS011;9989;48.962;9.182;2022-08-01T08:15:41;3.97;;;2.10;;
19679;SDS011;9989;48.962;9.182;2022-08-01T08:18:06;5.60;;;2.40;;
19679;SDS011;9989;48.962;9.182;2022-08-01T08:20:32;4.27;;;2.20;;
19679;SDS011;9989;48.962;9.182;2022-08-01T08:22:58;6.73;;;2.37;;
19679;SDS011;9989;48.962;9.182;2022-08-01T08:25:24;4.23;;;2.30;;
19679;SDS011;9989;48.962;9.182;2022-08-01T08:27:50;5.60;;;2.20;;
19679;SDS011;9989;48.962;9.182;2022-08-01T08:30:16;6.10;;;2.50;;
19679;SDS011;9989;48.962;9.182;2022-08-01T08:32:42;5.93;;;2.40;;
19679;SDS011;9989;48.962;9.182;2022-08-01T08:35:08;6.00;;;2.77;;
19679;SDS011;9989;48.962;9.182;2022-08-01T08:37:35;5.17;;;2.47;;
19679;SDS011;9989;48.962;9.182;2022-08-01T08:40:02;5.57;;;2.60;;
19679;SDS011;9989;48.962;9.182;2022-08-01T08:42:29;6.60;;;2.70;;
19679;SDS011;9989;48.962;9.182;2022-08-01T08:44:55;6.37;;;2.70;;
19679;SDS011;9989;48.962;9.182;2022-08-01T08:47:21;6.47;;;2.50;;
19679;SDS011;9989;48.962;9.182;2022-08-01T08:49:49;5.77;;;2.60;;
19679;SDS011;9989;48.962;9.182;2022-08-01T08:52:19;5.40;;;2.47;;
19679;SDS011;9989;48.962;9.182;2022-08-01T08:54:46;5.03;;;2.40;;
19679;SDS011;9989;48.962;9.182;2022-08-01T08:57:13;6.00;;;3.00;;
19679;SDS011;9989;48.962;9.182;2022-08-01T08:59:39;6.47;;;2.63;;
19679;SDS011;9989;48.962;9.182;2022-08-01T09:02:07;5.53;;;2.67;;
19679;SDS011;9989;48.962;9.182;2022-08-01T09:04:35;7.77;;;2.60;;
19679;SDS011;9989;48.962;9.182;2022-08-01T09:07:03;4.87;;;2.27;;
19679;SDS011;9989;48.962;9.182;2022-08-01T09:09:29;5.47;;;2.30;;
19679;SDS011;9989;48.962;9.182;2022-08-01T09:11:55;7.57;;;3.50;;
19679;SDS011;9989;48.962;9.182;2022-08-01T09:14:22;7.40;;;3.00;;
19679;SDS011;9989;48.962;9.182;2022-08-01T09:17:05;8.40;;;3.37;;
19679;SDS011;9989;48.962;9.182;2022-08-01T09:19:45;10.90;;;3.80;;
19679;SDS011;9989;48.962;9.182;2022-08-01T09:22:16;6.20;;;2.90;;
19679;SDS011;9989;48.962;9.182;2022-08-01T09:24:59;8.23;;;3.53;;
19679;SDS011;9989;48.962;9.182;2022-08-01T09:27:32;6.73;;;3.30;;
19679;SDS011;9989;48.962;9.182;2022-08-01T09:30:13;7.43;;;3.40;;
19679;SDS011;9989;48.962;9.182;2022-08-01T09:32:53;9.33;;;3.70;;
19679;SDS011;9989;48.962;9.182;2022-08-01T09:35:31;7.97;;;3.33;;
19679;SDS011;9989;48.962;9.182;2022-08-01T09:38:16;7.90;;;4.03;;
19679;SDS011;9989;48.962;9.182;2022-08-01T09:43:26;8.03;;;4.13;;
19679;SDS011;9989;48.962;9.182;2022-08-01T09:45:53;7.73;;;4.30;;
19679;SDS011;9989;48.962;9.182;2022-08-01T09:48:22;8.93;;;4.50;;
19679;SDS011;9989;48.962;9.182;2022-08-01T09:50:49;8.03;;;4.43;;
19679;SDS011;9989;48.962;9.182;2022-08-01T09:53:18;9.27;;;4.93;;
19679;SDS011;9989;48.962;9.182;2022-08-01T09:55:44;8.13;;;4.00;;
19679;SDS011;9989;48.962;9.182;2022-08-01T09:58:10;7.80;;;4.17;;
19679;SDS011;9989;48.962;9.182;2022-08-01T10:00:37;8.37;;;3.90;;
19679;SDS011;9989;48.962;9.182;2022-08-01T10:05:49;8.73;;;4.37;;
19679;SDS011;9989;48.962;9.182;2022-08-01T10:08:16;8.87;;;3.50;;
19679;SDS011;9989;48.962;9.182;2022-08-01T10:10:46;7.43;;;3.80;;
19679;SDS011;9989;48.962;9.182;2022-08-01T10:13:37;6.57;;;3.60;;
19679;SDS011;9989;48.962;9.182;2022-08-01T10:16:03;7.97;;;3.63;;
19679;SDS011;9989;48.962;9.182;2022-08-01T10:18:31;7.93;;;3.83;;
19679;SDS011;9989;48.962;9.182;2022-08-01T10:20:58;7.03;;;3.47;;
19679;SDS011;9989;48.962;9.182;2022-08-01T10:23:29;8.20;;;3.90;;
19679;SDS011;9989;48.962;9.182;2022-08-01T10:25:58;6.40;;;3.50;;
19679;SDS011;9989;48.962;9.182;2022-08-01T10:28:25;7.37;;;3.37;;
19679;SDS011;9989;48.962;9.182;2022-08-01T10:30:51;6.20;;;3.10;;
19679;SDS011;9989;48.962;9.182;2022-08-01T10:33:17;7.77;;;3.30;;
19679;SDS011;9989;48.962;9.182;2022-08-01T10:35:45;9.00;;;3.37;;
19679;SDS011;9989;48.962;9.182;2022-08-01T10:38:11;6.67;;;3.10;;
19679;SDS011;9989;48.962;9.182;2022-08-01T10:40:37;6.60;;;3.03;;
19679;SDS011;9989;48.962;9.182;2022-08-01T10:43:04;5.97;;;3.07;;
19679;SDS011;9989;48.962;9.182;2022-08-01T10:45:30;10.23;;;3.00;;
19679;SDS011;9989;48.962;9.182;2022-08-01T10:50:35;7.60;;;3.23;;
19679;SDS011;9989;48.962;9.182;2022-08-01T10:56:00;6.67;;;3.10;;
19679;SDS011;9989;48.962;9.182;2022-08-01T10:58:29;6.13;;;2.97;;
19679;SDS011;9989;48.962;9.182;2022-08-01T11:06:22;6.80;;;3.30;;
19679;SDS011;9989;48.962;9.182;2022-08-01T11:15:16;6.33;;;2.90;;
19679;SDS011;9989;48.962;9.182;2022-08-01T11:30:38;5.37;;;2.70;;
19679;SDS011;9989;48.962;9.182;2022-08-01T11:33:47;6.07;;;2.73;;
19679;SDS011;9989;48.962;9.182;2022-08-01T11:38:44;4.90;;;2.50;;
19679;SDS011;9989;48.962;9.182;2022-08-01T11:41:21;5.37;;;2.40;;
19679;SDS011;9989;48.962;9.182;2022-08-01T11:49:25;5.60;;;2.70;;
19679;SDS011;9989;48.962;9.182;2022-08-01T11:52:16;6.53;;;3.13;;
19679;SDS011;9989;48.962;9.182;2022-08-01T11:54:54;5.37;;;2.20;;
19679;SDS011;9989;48.962;9.182;2022-08-01T11:57:22;5.67;;;2.77;;
19679;SDS011;9989;48.962;9.182;2022-08-01T11:59:57;5.57;;;2.93;;
19679;SDS011;9989;48.962;9.182;2022-08-01T12:02:24;5.77;;;2.93;;
19679;SDS011;9989;48.962;9.182;2022-08-01T12:07:20;5.23;;;2.37;;
19679;SDS011;9989;48.962;9.182;2022-08-01T12:09:48;5.80;;;2.70;;
19679;SDS011;9989;48.962;9.182;2022-08-01T12:12:21;4.83;;;2.30;;
19679;SDS011;9989;48.962;9.182;2022-08-01T12:14:52;4.33;;;2.30;;
19679;SDS011;9989;48.962;9.182;2022-08-01T12:17:28;4.60;;;2.20;;
19679;SDS011;9989;48.962;9.182;2022-08-01T12:19:54;5.97;;;2.70;;
19679;SDS011;9989;48.962;9.182;2022-08-01T12:22:21;5.73;;;3.00;;
19679;SDS011;9989;48.962;9.182;2022-08-01T12:24:49;7.63;;;2.90;;
19679;SDS011;9989;48.962;9.182;2022-08-01T12:27:24;6.60;;;3.97;;
19679;SDS011;9989;48.962;9.182;2022-08-01T12:29:54;7.13;;;3.60;;
19679;SDS011;9989;48.962;9.182;2022-08-01T12:32:23;6.43;;;3.20;;
19679;SDS011;9989;48.962;9.182;2022-08-01T12:34:54;6.20;;;3.00;;
19679;SDS011;9989;48.962;9.182;2022-08-01T12:37:21;5.40;;;2.60;;
19679;SDS011;9989;48.962;9.182;2022-08-01T12:39:47;5.63;;;2.67;;
19679;SDS011;9989;48.962;9.182;2022-08-01T12:42:13;6.13;;;2.50;;
19679;SDS011;9989;48.962;9.182;2022-08-01T12:44:40;7.57;;;2.43;;
19679;SDS011;9989;48.962;9.182;2022-08-01T12:47:09;4.77;;;2.20;;
19679;SDS011;9989;48.962;9.182;2022-08-01T12:49:36;4.40;;;2.27;;
19679;SDS011;9989;48.962;9.182;2022-08-01T12:52:03;4.47;;;2.23;;
19679;SDS011;9989;48.962;9.182;2022-08-01T12:54:29;5.93;;;2.40;;
19679;SDS011;9989;48.962;9.182;2022-08-01T12:56:55;4.53;;;2.20;;
19679;SDS011;9989;48.962;9.182;2022-08-01T12:59:25;4.13;;;2.20;;
19679;SDS011;9989;48.962;9.182;2022-08-01T13:01:53;4.63;;;2.13;;
19679;SDS011;9989;48.962;9.182;2022-08-01T13:04:20;4.77;;;2.30;;
19679;SDS011;9989;48.962;9.182;2022-08-01T13:06:47;6.47;;;2.20;;
19679;SDS011;9989;48.962;9.182;2022-08-01T13:09:13;3.83;;;1.80;;
19679;SDS011;9989;48.962;9.182;2022-08-01T13:11:40;4.40;;;2.30;;
19679;SDS011;9989;48.962;9.182;2022-08-01T13:14:06;4.27;;;2.20;;
19679;SDS011;9989;48.962;9.182;2022-08-01T13:16:32;5.70;;;2.57;;
19679;SDS011;9989;48.962;9.182;2022-08-01T13:18:58;5.30;;;2.63;;
19679;SDS011;9989;48.962;9.182;2022-08-01T13:21:24;5.93;;;2.50;;
19679;SDS011;9989;48.962;9.182;2022-08-01T13:24:08;5.47;;;2.03;;
19679;SDS011;9989;48.962;9.182;2022-08-01T13:29:08;4.10;;;2.00;;
19679;SDS011;9989;48.962;9.182;2022-08-01T13:31:35;4.13;;;2.00;;
19679;SDS011;9989;48.962;9.182;2022-08-01T13:34:02;6.07;;;2.50;;
19679;SDS011;9989;48.962;9.182;2022-08-01T13:36:28;4.60;;;2.20;;
19679;SDS011;9989;48.962;9.182;2022-08-01T13:38:56;5.47;;;2.40;;
19679;SDS011;9989;48.962;9.182;2022-08-01T13:41:41;5.53;;;2.30;;
19679;SDS011;9989;48.962;9.182;2022-08-01T13:44:07;5.00;;;2.13;;
19679;SDS011;9989;48.962;9.182;2022-08-01T13:46:34;5.97;;;2.13;;
19679;SDS011;9989;48.962;9.182;2022-08-01T13:49:00;7.20;;;2.20;;
19679;SDS011;9989;48.962;9.182;2022-08-01T13:51:26;5.10;;;2.30;;
19679;SDS011;9989;48.962;9.182;2022-08-01T13:53:52;3.93;;;2.20;;
19679;SDS011;9989;48.962;9.182;2022-08-01T13:56:17;7.00;;;3.03;;
19679;SDS011;9989;48.962;9.182;2022-08-01T13:58:44;8.23;;;3.30;;
19679;SDS011;9989;48.962;9.182;2022-08-01T14:01:10;8.37;;;2.93;;
19679;SDS011;9989;48.962;9.182;2022-08-01T14:03:37;4.57;;;2.20;;
19679;SDS011;9989;48.962;9.182;2022-08-01T14:06:03;5.03;;;2.33;;
19679;SDS011;9989;48.962;9.182;2022-08-01T14:08:29;6.63;;;2.30;;
19679;SDS011;9989;48.962;9.182;2022-08-01T14:10:55;4.77;;;2.10;;
19679;SDS011;9989;48.962;9.182;2022-08-01T14:13:23;6.83;;;2.70;;
19679;SDS011;9989;48.962;9.182;2022-08-01T14:15:49;4.53;;;2.27;;
19679;SDS011;9989;48.962;9.182;2022-08-01T14:18:15;5.20;;;2.40;;
19679;SDS011;9989;48.962;9.182;2022-08-01T14:20:41;5.73;;;2.40;;
19679;SDS011;9989;48.962;9.182;2022-08-01T14:23:07;5.47;;;2.47;;
19679;SDS011;9989;48.962;9.182;2022-08-01T14:25:33;9.27;;;2.30;;
19679;SDS011;9989;48.962;9.182;2022-08-01T14:27:59;5.37;;;2.40;;
19679;SDS011;9989;48.962;9.182;2022-08-01T14:30:24;5.80;;;2.33;;
19679;SDS011;9989;48.962;9.182;2022-08-01T14:32:50;5.47;;;2.33;;
19679;SDS011;9989;48.962;9.182;2022-08-01T14:35:16;5.00;;;2.40;;
19679;SDS011;9989;48.962;9.182;2022-08-01T14:37:41;5.10;;;2.30;;
19679;SDS011;9989;48.962;9.182;2022-08-01T14:40:07;6.93;;;2.77;;
19679;SDS011;9989;48.962;9.182;2022-08-01T14:42:37;7.07;;;2.40;;
19679;SDS011;9989;48.962;9.182;2022-08-01T14:45:04;5.37;;;2.40;;
19679;SDS011;9989;48.962;9.182;2022-08-01T14:47:34;4.17;;;2.10;;
19679;SDS011;9989;48.962;9.182;2022-08-01T14:50:01;4.17;;;2.00;;
19679;SDS011;9989;48.962;9.182;2022-08-01T14:52:27;5.63;;;2.07;;
19679;SDS011;9989;48.962;9.182;2022-08-01T14:54:53;5.63;;;2.07;;
19679;SDS011;9989;48.962;9.182;2022-08-01T14:57:18;5.77;;;2.03;;
19679;SDS011;9989;48.962;9.182;2022-08-01T14:59:44;4.80;;;2.10;;
19679;SDS011;9989;48.962;9.182;2022-08-01T15:02:10;4.13;;;2.20;;
19679;SDS011;9989;48.962;9.182;2022-08-01T15:04:36;4.57;;;2.20;;
19679;SDS011;9989;48.962;9.182;2022-08-01T15:07:01;6.97;;;2.10;;
19679;SDS011;9989;48.962;9.182;2022-08-01T15:09:27;7.10;;;2.03;;
19679;SDS011;9989;48.962;9.182;2022-08-01T15:11:53;5.47;;;2.10;;
19679;SDS011;9989;48.962;9.182;2022-08-01T15:14:18;5.10;;;2.43;;
19679;SDS011;9989;48.962;9.182;2022-08-01T15:17:02;7.40;;;1.80;;
19679;SDS011;9989;48.962;9.182;2022-08-01T15:19:28;4.90;;;2.13;;
19679;SDS011;9989;48.962;9.182;2022-08-01T15:21:54;4.77;;;2.47;;
19679;SDS011;9989;48.962;9.182;2022-08-01T15:24:20;3.23;;;1.80;;
19679;SDS011;9989;48.962;9.182;2022-08-01T15:26:45;3.83;;;1.73;;
19679;SDS011;9989;48.962;9.182;2022-08-01T15:29:11;4.97;;;2.20;;
19679;SDS011;9989;48.962;9.182;2022-08-01T15:31:38;4.27;;;2.10;;
19679;SDS011;9989;48.962;9.182;2022-08-01T15:34:04;4.00;;;1.67;;
19679;SDS011;9989;48.962;9.182;2022-08-01T15:36:29;5.57;;;2.20;;
19679;SDS011;9989;48.962;9.182;2022-08-01T15:38:55;4.37;;;1.90;;
19679;SDS011;9989;48.962;9.182;2022-08-01T15:41:20;3.97;;;1.87;;
19679;SDS011;9989;48.962;9.182;2022-08-01T15:43:46;3.53;;;2.07;;
19679;SDS011;9989;48.962;9.182;2022-08-01T15:46:11;5.47;;;1.80;;
19679;SDS011;9989;48.962;9.182;2022-08-01T15:48:37;5.50;;;2.10;;
19679;SDS011;9989;48.962;9.182;2022-08-01T15:51:03;5.00;;;1.80;;
19679;SDS011;9989;48.962;9.182;2022-08-01T15:53:28;3.37;;;1.70;;
19679;SDS011;9989;48.962;9.182;2022-08-01T15:55:54;4.40;;;2.00;;
19679;SDS011;9989;48.962;9.182;2022-08-01T15:58:19;3.03;;;1.57;;
19679;SDS011;9989;48.962;9.182;2022-08-01T16:00:45;3.97;;;1.77;;
19679;SDS011;9989;48.962;9.182;2022-08-01T16:03:10;5.40;;;1.87;;